Time;durP1;ratioP1;P1;durP2;ratioP2;P2;SDS_P1;SDS_P2;PMS_P1;PMS_P2;Temp;Humidity;BMP_temperature;BMP_pressure;BME280_temperature;BME280_humidity;BME280_pressure;Samples;Min_cycle;Max_cycle;Signal;HPM_P1;HPM_P2
2022/03/07 00:00:08;;;;;;;4.37;2.90;;;-0.50;95.90;;;;;;5006307;28;20034;-57
2022/03/07 00:02:33;;;;;;;7.10;3.47;;;-0.60;95.90;;;;;;5006016;28;20106;-55
2022/03/07 00:04:59;;;;;;;8.60;4.60;;;-0.60;96.50;;;;;;5009176;28;20045;-58
2022/03/07 00:07:24;;;;;;;9.43;3.10;;;-0.70;96.50;;;;;;5000895;28;20034;-56
2022/03/07 00:09:50;;;;;;;5.67;3.23;;;-0.60;96.20;;;;;;5010841;28;20041;-56
2022/03/07 00:12:15;;;;;;;5.43;2.93;;;-0.60;96.40;;;;;;5000262;28;20276;-57
2022/03/07 00:14:41;;;;;;;6.77;3.50;;;-0.60;96.50;;;;;;5005973;28;20444;-55
2022/03/07 00:17:06;;;;;;;5.10;2.90;;;-0.60;96.70;;;;;;5000310;28;20407;-56
2022/03/07 00:19:32;;;;;;;8.10;3.30;;;-0.60;97.00;;;;;;5010380;28;20033;-56
2022/03/07 00:21:57;;;;;;;5.33;3.23;;;-0.50;96.30;;;;;;5010188;28;20030;-54
2022/03/07 00:24:23;;;;;;;4.93;2.93;;;-0.50;96.40;;;;;;5008013;28;20030;-55
2022/03/07 00:26:49;;;;;;;4.40;2.60;;;-0.40;96.10;;;;;;5002885;28;20563;-58
2022/03/07 00:29:14;;;;;;;6.90;3.13;;;-0.30;95.60;;;;;;5010912;28;20041;-56
2022/03/07 00:31:40;;;;;;;7.83;3.13;;;-0.20;95.60;;;;;;4986660;28;20045;-56
2022/03/07 00:34:05;;;;;;;5.47;2.63;;;-0.10;95.10;;;;;;5006584;28;20029;-59
2022/03/07 00:36:32;;;;;;;5.73;3.50;;;0.00;95.30;;;;;;4998689;28;20042;-54
2022/03/07 00:38:58;;;;;;;4.17;2.40;;;0.00;95.70;;;;;;5005924;28;20028;-54
2022/03/07 00:41:23;;;;;;;5.57;2.67;;;0.00;95.90;;;;;;5008334;28;20034;-53
2022/03/07 00:43:49;;;;;;;5.70;3.00;;;0.00;95.60;;;;;;5009627;28;20041;-57
2022/03/07 00:46:15;;;;;;;6.47;2.90;;;0.00;95.20;;;;;;5009194;28;20028;-54
2022/03/07 00:48:41;;;;;;;4.73;2.80;;;0.00;95.60;;;;;;5006674;28;20499;-55
2022/03/07 00:51:06;;;;;;;5.57;3.00;;;0.00;95.70;;;;;;5004462;28;20042;-55
2022/03/07 00:53:32;;;;;;;7.67;2.47;;;0.00;95.70;;;;;;5007383;28;20026;-56
2022/03/07 00:55:57;;;;;;;4.90;2.60;;;-0.10;95.90;;;;;;5007057;28;20125;-58
2022/03/07 00:58:24;;;;;;;4.97;2.80;;;-0.20;96.40;;;;;;5006274;28;20036;-56
2022/03/07 01:00:49;;;;;;;6.13;3.00;;;-0.20;96.00;;;;;;5007761;28;20468;-56
2022/03/07 01:03:16;;;;;;;3.47;2.40;;;-0.20;96.20;;;;;;5006949;28;20045;-54
2022/03/07 01:05:44;;;;;;;6.47;2.70;;;-0.20;96.20;;;;;;4996038;28;20058;-59
2022/03/07 01:08:10;;;;;;;6.60;3.53;;;-0.20;96.30;;;;;;5005282;28;20040;-55
2022/03/07 01:10:36;;;;;;;4.73;2.90;;;-0.30;96.40;;;;;;5005880;28;20109;-53
2022/03/07 01:13:01;;;;;;;6.23;3.20;;;-0.30;96.30;;;;;;5006260;28;20026;-56
2022/03/07 01:15:27;;;;;;;3.70;2.40;;;-0.40;96.50;;;;;;5002708;28;20022;-55
2022/03/07 01:17:59;;;;;;;4.87;2.77;;;-0.40;96.50;;;;;;5001857;28;20402;-56
2022/03/07 01:20:25;;;;;;;6.50;3.00;;;-0.40;96.40;;;;;;5005510;28;20020;-55
2022/03/07 01:22:51;;;;;;;3.60;2.97;;;-0.40;96.90;;;;;;5002693;28;20514;-56
2022/03/07 01:25:17;;;;;;;5.43;2.30;;;-0.40;96.40;;;;;;4996688;28;20037;-54
2022/03/07 01:27:42;;;;;;;4.33;2.40;;;-0.40;96.80;;;;;;4994552;28;20168;-54
2022/03/07 01:30:08;;;;;;;5.67;2.67;;;-0.40;96.60;;;;;;5007362;28;20550;-55
2022/03/07 01:32:34;;;;;;;3.80;2.50;;;-0.50;96.70;;;;;;4982284;28;20080;-57
2022/03/07 01:35:00;;;;;;;3.77;2.50;;;-0.40;96.50;;;;;;5009036;28;20029;-53
2022/03/07 01:37:25;;;;;;;5.13;2.63;;;-0.40;96.60;;;;;;5007592;28;20041;-56
2022/03/07 01:39:51;;;;;;;7.30;2.80;;;-0.50;97.30;;;;;;4999711;28;20399;-56
2022/03/07 01:42:16;;;;;;;5.23;2.70;;;-0.40;96.70;;;;;;4999864;28;20076;-57
2022/03/07 01:44:42;;;;;;;4.17;2.60;;;-0.40;96.30;;;;;;5005454;28;20142;-52
2022/03/07 01:47:08;;;;;;;8.10;3.07;;;-0.30;96.30;;;;;;4998395;28;20027;-56
2022/03/07 01:49:34;;;;;;;6.50;2.93;;;-0.30;96.30;;;;;;5009025;28;20037;-55
2022/03/07 01:51:59;;;;;;;5.13;1.97;;;-0.30;96.80;;;;;;5007209;28;20492;-49
2022/03/07 01:54:26;;;;;;;5.27;2.43;;;-0.30;96.20;;;;;;5007712;28;20026;-54
2022/03/07 01:56:53;;;;;;;6.60;2.40;;;-0.30;96.30;;;;;;5004304;28;20049;-56
2022/03/07 01:59:22;;;;;;;4.17;2.50;;;-0.40;96.30;;;;;;5009021;28;20038;-54
2022/03/07 02:01:48;;;;;;;4.80;2.90;;;-0.40;96.50;;;;;;5002655;28;20392;-53
2022/03/07 02:04:14;;;;;;;3.93;2.23;;;-0.50;97.00;;;;;;5007234;28;20037;-55
2022/03/07 02:06:40;;;;;;;5.17;2.30;;;-0.50;96.70;;;;;;5000040;28;20037;-54
2022/03/07 02:09:07;;;;;;;4.50;2.60;;;-0.60;96.60;;;;;;5007448;28;20092;-57
2022/03/07 02:11:33;;;;;;;5.13;2.60;;;-0.60;97.00;;;;;;5003368;28;20022;-54
2022/03/07 02:14:12;;;;;;;7.77;2.90;;;-0.70;96.90;;;;;;5006800;28;20088;-54
2022/03/07 02:16:39;;;;;;;3.87;2.37;;;-0.60;96.90;;;;;;4997953;28;20265;-58
2022/03/07 02:19:04;;;;;;;4.77;2.50;;;-0.60;96.70;;;;;;5000448;28;20026;-55
2022/03/07 02:21:34;;;;;;;3.93;2.20;;;-0.60;96.80;;;;;;4998308;28;20029;-54
2022/03/07 02:24:00;;;;;;;2.73;1.90;;;-0.70;97.10;;;;;;4999169;28;20093;-54
2022/03/07 02:26:25;;;;;;;3.30;1.77;;;-0.70;96.50;;;;;;5005049;28;20029;-55
2022/03/07 02:28:51;;;;;;;4.13;2.43;;;-0.60;96.40;;;;;;5011407;28;20038;-57
2022/03/07 02:31:19;;;;;;;4.93;2.90;;;-0.70;96.60;;;;;;4986676;28;20042;-53
2022/03/07 02:33:45;;;;;;;3.00;2.23;;;-0.70;96.30;;;;;;5006149;28;20025;-57
2022/03/07 02:36:10;;;;;;;5.27;1.93;;;-0.80;96.50;;;;;;5007655;28;20038;-55
2022/03/07 02:38:36;;;;;;;2.90;1.80;;;-0.90;97.20;;;;;;5012345;28;20022;-55
2022/03/07 02:41:02;;;;;;;4.87;2.67;;;-0.90;97.10;;;;;;5007080;28;20023;-56
2022/03/07 02:43:28;;;;;;;4.17;2.40;;;-1.00;97.20;;;;;;5005698;28;20033;-58
2022/03/07 02:45:55;;;;;;;5.37;2.20;;;-1.00;97.30;;;;;;5011864;28;20036;-57
2022/03/07 02:48:21;;;;;;;3.73;2.20;;;-1.00;96.90;;;;;;5012452;28;20029;-56
2022/03/07 02:50:46;;;;;;;5.37;2.10;;;-1.00;96.70;;;;;;5008888;28;20045;-59
2022/03/07 02:53:12;;;;;;;2.83;1.97;;;-0.90;96.90;;;;;;5011429;28;20475;-59
2022/03/07 02:55:38;;;;;;;4.40;2.30;;;-1.00;97.20;;;;;;5002960;28;20109;-57
2022/03/07 02:58:04;;;;;;;4.17;1.97;;;-1.10;97.10;;;;;;5007017;28;20117;-57
2022/03/07 03:00:30;;;;;;;3.10;1.83;;;-1.10;97.30;;;;;;5005789;28;20062;-54
2022/03/07 03:02:56;;;;;;;3.77;2.07;;;-1.20;97.10;;;;;;5006588;28;20026;-57
2022/03/07 03:05:23;;;;;;;8.77;3.07;;;-1.20;97.50;;;;;;5011541;28;20038;-55
2022/03/07 03:07:50;;;;;;;2.70;1.80;;;-1.30;97.30;;;;;;4999257;28;20033;-53
2022/03/07 03:10:17;;;;;;;6.30;2.13;;;-1.30;97.30;;;;;;5004521;28;20023;-57
2022/03/07 03:12:43;;;;;;;3.23;2.30;;;-1.40;97.80;;;;;;5009974;28;20038;-56
2022/03/07 03:15:09;;;;;;;3.00;2.27;;;-1.50;98.00;;;;;;5010606;28;20033;-57
2022/03/07 03:17:38;;;;;;;7.50;2.93;;;-1.60;98.20;;;;;;5000526;28;20479;-56
2022/03/07 03:20:03;;;;;;;5.83;2.07;;;-1.70;98.70;;;;;;5003723;28;20041;-57
2022/03/07 03:22:29;;;;;;;2.87;2.13;;;-1.70;99.00;;;;;;5010113;28;20033;-56
2022/03/07 03:24:55;;;;;;;6.47;2.63;;;-1.80;99.00;;;;;;5002622;28;20046;-56
2022/03/07 03:27:20;;;;;;;4.63;2.00;;;-1.80;98.90;;;;;;5002696;28;20049;-53
2022/03/07 03:29:46;;;;;;;3.57;2.33;;;-1.90;99.10;;;;;;5002513;28;20030;-58
2022/03/07 03:32:11;;;;;;;4.17;2.20;;;-1.90;99.30;;;;;;4992904;28;20042;-56
2022/03/07 03:34:37;;;;;;;2.97;1.83;;;-1.90;99.30;;;;;;5007226;28;20038;-52
2022/03/07 03:37:03;;;;;;;6.13;2.40;;;-1.80;99.20;;;;;;5000446;28;20030;-56
2022/03/07 03:39:28;;;;;;;2.90;1.90;;;-1.80;99.00;;;;;;5009736;28;20531;-56
2022/03/07 03:41:54;;;;;;;4.47;2.20;;;-1.70;98.80;;;;;;5011123;28;20037;-54
2022/03/07 03:44:19;;;;;;;4.23;2.20;;;-1.70;98.80;;;;;;5010593;28;20030;-55
2022/03/07 03:46:45;;;;;;;3.33;1.90;;;-1.70;98.80;;;;;;5006583;28;20099;-59
2022/03/07 03:49:10;;;;;;;4.40;2.03;;;-1.70;98.70;;;;;;5011475;28;20748;-55
2022/03/07 03:51:36;;;;;;;7.37;2.20;;;-1.70;99.00;;;;;;5005152;28;20045;-57
2022/03/07 03:54:02;;;;;;;4.53;2.37;;;-1.70;98.70;;;;;;5007779;28;20033;-55
2022/03/07 03:56:27;;;;;;;3.93;2.10;;;-1.70;98.50;;;;;;5010961;28;20117;-60
2022/03/07 03:58:53;;;;;;;3.67;1.97;;;-1.60;98.40;;;;;;5006697;28;20555;-59
2022/03/07 04:01:18;;;;;;;6.30;2.50;;;-1.60;98.40;;;;;;5003626;28;20034;-55
2022/03/07 04:03:44;;;;;;;4.97;2.20;;;-1.60;98.20;;;;;;5009778;28;20025;-57
2022/03/07 04:06:10;;;;;;;4.87;2.00;;;-1.50;98.10;;;;;;5002533;28;20121;-57
2022/03/07 04:08:36;;;;;;;4.80;2.23;;;-1.50;98.00;;;;;;5003963;28;20014;-57
2022/03/07 04:11:02;;;;;;;3.67;2.37;;;-1.50;98.10;;;;;;5000863;28;20113;-56
2022/03/07 04:13:27;;;;;;;3.43;2.03;;;-1.50;98.30;;;;;;5007954;28;20109;-54
2022/03/07 04:15:53;;;;;;;3.37;2.03;;;-1.60;98.20;;;;;;5008927;28;20022;-58
2022/03/07 04:18:18;;;;;;;5.17;2.80;;;-1.60;98.40;;;;;;5003853;28;20022;-57
2022/03/07 04:20:44;;;;;;;4.30;2.30;;;-1.60;98.20;;;;;;5006413;28;20030;-57
2022/03/07 04:23:10;;;;;;;4.20;2.30;;;-1.60;98.30;;;;;;5007879;28;20036;-54
2022/03/07 04:25:35;;;;;;;2.90;2.10;;;-1.50;98.20;;;;;;5001917;28;20064;-59
2022/03/07 04:28:01;;;;;;;7.80;2.73;;;-1.60;98.10;;;;;;4997611;28;20026;-57
2022/03/07 04:30:27;;;;;;;4.73;2.67;;;-1.60;98.30;;;;;;5006742;28;20044;-57
2022/03/07 04:32:53;;;;;;;4.77;2.40;;;-1.60;98.40;;;;;;5029454;23;20103;-57
2022/03/07 04:35:18;;;;;;;4.60;2.40;;;-1.60;98.30;;;;;;5046539;28;20212;-57
2022/03/07 04:37:44;;;;;;;4.13;2.00;;;-1.60;98.30;;;;;;5046656;28;20079;-58
2022/03/07 04:40:16;;;;;;;3.87;2.30;;;-1.60;98.30;;;;;;5046045;28;20123;-58
2022/03/07 04:42:43;;;;;;;5.67;3.03;;;-1.60;98.40;;;;;;5042739;28;20037;-57
2022/03/07 04:45:10;;;;;;;6.83;2.70;;;-1.60;98.40;;;;;;5041653;28;20039;-60
2022/03/07 04:47:36;;;;;;;5.83;2.33;;;-1.60;98.50;;;;;;5044966;28;20649;-59
2022/03/07 04:50:01;;;;;;;6.47;3.77;;;-1.60;98.50;;;;;;5037715;28;20047;-58
2022/03/07 04:52:27;;;;;;;3.80;2.30;;;-1.60;98.50;;;;;;5043331;28;20124;-60
2022/03/07 04:54:53;;;;;;;4.43;2.53;;;-1.60;98.50;;;;;;5049279;28;20104;-60
2022/03/07 04:57:18;;;;;;;3.07;2.37;;;-1.70;98.70;;;;;;5046873;28;20059;-59
2022/03/07 04:59:45;;;;;;;4.30;2.30;;;-1.70;98.70;;;;;;5049885;28;20116;-57
2022/03/07 05:02:13;;;;;;;4.23;2.30;;;-1.70;98.80;;;;;;5047562;28;20558;-58
2022/03/07 05:04:39;;;;;;;4.77;2.57;;;-1.70;98.90;;;;;;5044234;28;20058;-59
2022/03/07 05:07:04;;;;;;;3.27;2.17;;;-1.80;99.00;;;;;;5042221;28;20457;-61
2022/03/07 05:09:30;;;;;;;4.57;2.00;;;-1.80;99.10;;;;;;5044713;28;20064;-58
2022/03/07 05:11:55;;;;;;;4.40;2.70;;;-1.80;99.40;;;;;;5029704;28;20099;-59
2022/03/07 05:14:21;;;;;;;6.47;2.37;;;-1.90;99.50;;;;;;5041150;28;20029;-60
2022/03/07 05:16:46;;;;;;;6.20;2.80;;;-1.90;99.60;;;;;;5036437;28;20057;-59
2022/03/07 05:19:12;;;;;;;5.47;3.10;;;-1.90;99.70;;;;;;5046971;28;20482;-59
2022/03/07 05:21:37;;;;;;;5.73;2.47;;;-1.90;99.70;;;;;;5048252;28;20041;-59
2022/03/07 05:24:03;;;;;;;3.33;2.50;;;-1.90;99.80;;;;;;5043645;28;20575;-59
2022/03/07 05:26:29;;;;;;;4.13;2.07;;;-1.90;99.80;;;;;;5039624;28;20407;-60
2022/03/07 05:28:54;;;;;;;4.10;2.63;;;-1.90;99.90;;;;;;5040437;28;20037;-60
2022/03/07 05:31:20;;;;;;;4.67;2.90;;;-1.90;99.90;;;;;;5033798;28;20026;-60
2022/03/07 05:33:45;;;;;;;5.97;3.17;;;-2.00;99.90;;;;;;5030628;28;20082;-59
2022/03/07 05:36:11;;;;;;;5.80;3.00;;;-2.00;99.90;;;;;;5038214;28;20040;-59
2022/03/07 05:38:37;;;;;;;3.23;2.73;;;-2.00;99.90;;;;;;5041314;28;20548;-57
2022/03/07 05:41:02;;;;;;;5.90;2.63;;;-2.00;99.90;;;;;;5047508;28;20031;-59
2022/03/07 05:43:28;;;;;;;6.23;3.03;;;-2.00;99.90;;;;;;5035501;28;20035;-59
2022/03/07 05:45:53;;;;;;;4.97;2.47;;;-2.00;99.90;;;;;;5044337;28;20033;-59
2022/03/07 05:48:19;;;;;;;5.77;2.97;;;-2.00;99.90;;;;;;5039724;28;20032;-59
2022/03/07 05:50:45;;;;;;;4.40;3.10;;;-2.00;99.90;;;;;;5044189;28;20053;-59
2022/03/07 05:53:11;;;;;;;5.07;3.20;;;-2.00;99.90;;;;;;5042513;28;20067;-59
2022/03/07 05:55:37;;;;;;;10.87;3.70;;;-2.00;99.90;;;;;;5040621;28;20448;-57
2022/03/07 05:58:02;;;;;;;9.10;3.63;;;-2.00;99.90;;;;;;5045382;28;20021;-61
2022/03/07 06:00:29;;;;;;;6.00;2.90;;;-2.00;99.90;;;;;;5048209;28;20111;-59
2022/03/07 06:02:55;;;;;;;4.83;3.13;;;-2.00;99.90;;;;;;5044326;28;20025;-59
2022/03/07 06:05:21;;;;;;;4.53;2.60;;;-1.90;99.90;;;;;;5043513;28;20029;-59
2022/03/07 06:07:47;;;;;;;8.93;3.50;;;-1.90;99.90;;;;;;5044684;28;20100;-59
2022/03/07 06:10:12;;;;;;;6.47;3.07;;;-1.90;99.90;;;;;;5052193;28;20032;-59
2022/03/07 06:12:38;;;;;;;8.27;3.67;;;-1.90;99.90;;;;;;5046272;28;20028;-59
2022/03/07 06:15:05;;;;;;;8.43;4.17;;;-1.90;99.90;;;;;;5038848;28;20026;-59
2022/03/07 06:17:31;;;;;;;8.30;3.87;;;-1.90;99.90;;;;;;5043489;28;20029;-58
2022/03/07 06:19:57;;;;;;;7.13;3.70;;;-1.80;99.90;;;;;;5052052;28;20029;-58
2022/03/07 06:22:22;;;;;;;10.67;3.60;;;-1.80;99.90;;;;;;5049291;28;20090;-58
2022/03/07 06:24:48;;;;;;;6.23;2.97;;;-1.80;99.90;;;;;;5038849;28;20032;-58
2022/03/07 06:27:13;;;;;;;6.70;3.40;;;-1.80;99.90;;;;;;5049375;28;20036;-59
2022/03/07 06:29:39;;;;;;;7.13;3.20;;;-1.80;99.90;;;;;;5040128;28;20028;-59
2022/03/07 06:32:05;;;;;;;5.77;3.10;;;-1.80;99.90;;;;;;5027015;28;20037;-59
2022/03/07 06:34:33;;;;;;;6.67;2.97;;;-1.80;99.90;;;;;;5041244;28;20390;-59
2022/03/07 06:36:59;;;;;;;6.67;3.73;;;-1.80;99.90;;;;;;5043641;28;20029;-59
2022/03/07 06:39:26;;;;;;;7.70;3.97;;;-1.70;99.90;;;;;;5045462;28;20497;-59
2022/03/07 06:41:55;;;;;;;7.37;3.80;;;-1.60;99.90;;;;;;5050244;28;20043;-59
2022/03/07 06:44:21;;;;;;;5.83;3.50;;;-1.50;99.90;;;;;;5035531;28;20144;-59
2022/03/07 06:46:47;;;;;;;8.63;3.83;;;-1.50;99.80;;;;;;5042721;28;20037;-59
2022/03/07 06:49:13;;;;;;;4.33;3.00;;;-1.40;99.70;;;;;;5047098;28;20029;-60
2022/03/07 06:51:38;;;;;;;6.37;3.10;;;-1.30;99.40;;;;;;5051185;28;20061;-60
2022/03/07 06:54:05;;;;;;;7.03;3.27;;;-1.20;99.10;;;;;;5042634;28;20040;-60
2022/03/07 06:56:30;;;;;;;9.67;2.80;;;-1.10;99.20;;;;;;5050960;28;20100;-58
2022/03/07 06:58:56;;;;;;;4.90;2.77;;;-1.00;98.90;;;;;;5052682;28;20104;-60
2022/03/07 07:01:22;;;;;;;4.23;3.00;;;-0.90;98.60;;;;;;5045438;28;20033;-60
2022/03/07 07:03:48;;;;;;;9.73;2.97;;;-0.80;98.40;;;;;;5045120;28;20033;-60
2022/03/07 07:06:14;;;;;;;5.40;2.70;;;-0.60;98.20;;;;;;5043266;28;20083;-60
2022/03/07 07:08:39;;;;;;;6.20;2.60;;;-0.40;97.90;;;;;;5046437;28;20025;-59
2022/03/07 07:11:05;;;;;;;7.07;2.93;;;-0.10;97.70;;;;;;5044559;28;20029;-60
2022/03/07 07:13:31;;;;;;;4.50;2.85;;;0.40;97.00;;;;;;5047090;28;20033;-60
2022/03/07 07:15:57;;;;;;;3.85;2.50;;;1.30;95.20;;;;;;5046721;28;20031;-60
2022/03/07 07:18:24;;;;;;;4.35;2.47;;;1.90;94.50;;;;;;5049929;28;20033;-60
2022/03/07 07:20:50;;;;;;;4.43;2.45;;;2.10;93.00;;;;;;5041503;28;20072;-60
2022/03/07 07:23:20;;;;;;;4.30;2.28;;;1.80;93.20;;;;;;5045993;28;20029;-60
2022/03/07 07:25:46;;;;;;;4.95;2.83;;;1.70;93.40;;;;;;5036815;28;20055;-59
2022/03/07 07:28:12;;;;;;;5.03;3.03;;;1.70;93.40;;;;;;5046510;28;20029;-59
2022/03/07 07:30:37;;;;;;;4.70;2.72;;;1.60;93.80;;;;;;5049816;28;20462;-59
2022/03/07 07:33:04;;;;;;;4.95;2.97;;;1.60;93.70;;;;;;5025095;28;20144;-60
2022/03/07 07:35:29;;;;;;;6.70;2.60;;;1.60;93.80;;;;;;5046203;28;20104;-59
2022/03/07 07:37:55;;;;;;;4.95;2.70;;;1.60;94.00;;;;;;5048249;28;20108;-59
2022/03/07 07:40:21;;;;;;;3.50;2.63;;;1.60;94.10;;;;;;5050612;28;20037;-59
2022/03/07 07:42:46;;;;;;;4.75;2.75;;;1.70;94.40;;;;;;5038338;28;20079;-59
2022/03/07 07:45:12;;;;;;;3.92;2.92;;;1.60;94.40;;;;;;5046027;28;20032;-59
2022/03/07 07:47:39;;;;;;;3.67;2.50;;;1.70;94.10;;;;;;5041950;28;20074;-59
2022/03/07 07:50:05;;;;;;;6.63;3.20;;;1.70;94.30;;;;;;5047878;28;20056;-59
2022/03/07 07:52:31;;;;;;;5.80;2.78;;;1.90;94.40;;;;;;5039704;28;20470;-59
2022/03/07 07:54:56;;;;;;;4.72;3.20;;;2.00;94.10;;;;;;5040954;28;20120;-59
2022/03/07 07:57:22;;;;;;;13.90;3.47;;;2.20;93.90;;;;;;5043920;28;20383;-59
2022/03/07 07:59:48;;;;;;;5.22;2.67;;;2.30;94.30;;;;;;5047071;28;20032;-57
2022/03/07 08:02:13;;;;;;;5.30;2.80;;;2.40;93.50;;;;;;5042285;28;20675;-59
2022/03/07 08:04:39;;;;;;;8.93;3.38;;;2.50;93.40;;;;;;5041754;28;20033;-59
2022/03/07 08:07:05;;;;;;;4.40;2.90;;;2.70;93.50;;;;;;5050162;28;20041;-57
2022/03/07 08:09:30;;;;;;;8.63;3.30;;;2.70;93.40;;;;;;5044605;28;20031;-59
2022/03/07 08:11:56;;;;;;;5.97;3.45;;;2.60;93.70;;;;;;5041566;28;20394;-59
2022/03/07 08:14:23;;;;;;;5.70;3.13;;;2.50;93.80;;;;;;5048580;28;20379;-58
2022/03/07 08:16:49;;;;;;;5.22;3.10;;;2.60;93.30;;;;;;5041737;28;20033;-59
2022/03/07 08:19:15;;;;;;;6.85;3.22;;;2.40;93.90;;;;;;5041653;28;20035;-57
2022/03/07 08:21:41;;;;;;;5.28;2.85;;;2.40;93.20;;;;;;5039249;28;20490;-59
2022/03/07 08:24:06;;;;;;;5.30;3.20;;;2.50;93.40;;;;;;5047974;28;20029;-56
2022/03/07 08:26:32;;;;;;;6.93;4.10;;;2.50;93.20;;;;;;5045540;28;20032;-59
2022/03/07 08:28:58;;;;;;;7.93;3.25;;;2.40;93.00;;;;;;5042360;28;20029;-59
2022/03/07 08:31:23;;;;;;;4.57;2.70;;;2.40;93.50;;;;;;5044021;28;20029;-59
2022/03/07 08:33:49;;;;;;;10.38;3.92;;;2.40;93.20;;;;;;5028528;28;20178;-59
2022/03/07 08:36:15;;;;;;;3.85;2.70;;;2.30;93.80;;;;;;5042671;28;20048;-59
2022/03/07 08:38:40;;;;;;;8.15;3.60;;;2.30;93.30;;;;;;5041112;28;20021;-59
2022/03/07 08:41:06;;;;;;;8.07;3.97;;;2.10;94.60;;;;;;5041215;28;20502;-60
2022/03/07 08:43:32;;;;;;;4.80;3.08;;;2.10;93.60;;;;;;5045269;28;20032;-57
2022/03/07 08:45:57;;;;;;;6.40;2.90;;;2.00;94.20;;;;;;5048836;28;20163;-59
2022/03/07 08:48:24;;;;;;;11.77;4.13;;;2.00;94.30;;;;;;5041295;28;20021;-59
2022/03/07 08:50:49;;;;;;;8.82;3.15;;;1.90;94.20;;;;;;5057819;28;20040;-59
2022/03/07 08:53:16;;;;;;;5.78;2.67;;;1.90;93.80;;;;;;5046092;28;20067;-57
2022/03/07 08:55:42;;;;;;;5.60;2.83;;;1.90;93.40;;;;;;5043894;28;20037;-58
2022/03/07 08:58:07;;;;;;;4.40;2.53;;;1.90;93.60;;;;;;5040980;28;20025;-57
2022/03/07 09:00:33;;;;;;;3.47;2.40;;;2.00;94.20;;;;;;5045422;28;20013;-57
2022/03/07 09:02:59;;;;;;;6.43;2.88;;;2.10;92.90;;;;;;5045807;28;20025;-59
2022/03/07 09:05:26;;;;;;;4.57;2.70;;;2.20;93.70;;;;;;5045230;28;20043;-58
2022/03/07 09:07:51;;;;;;;4.78;2.70;;;2.20;93.20;;;;;;5042098;28;20044;-58
2022/03/07 09:10:17;;;;;;;3.45;2.10;;;2.20;93.20;;;;;;5044562;28;20032;-59
2022/03/07 09:12:43;;;;;;;6.68;2.75;;;2.30;93.30;;;;;;5047699;28;20401;-58
2022/03/07 09:15:09;;;;;;;4.35;2.90;;;2.40;92.70;;;;;;5042139;28;20021;-59
2022/03/07 09:17:35;;;;;;;8.27;3.10;;;2.40;92.80;;;;;;5041085;28;20026;-60
2022/03/07 09:20:01;;;;;;;9.98;6.97;;;2.60;92.50;;;;;;5042928;28;20433;-59
2022/03/07 09:22:27;;;;;;;4.60;2.85;;;2.90;92.60;;;;;;5037067;28;20522;-58
2022/03/07 09:24:53;;;;;;;5.32;2.20;;;3.60;91.70;;;;;;5041986;28;20468;-59
2022/03/07 09:27:19;;;;;;;3.75;2.50;;;4.20;90.70;;;;;;5043926;28;20049;-60
2022/03/07 09:29:45;;;;;;;4.35;2.10;;;4.70;90.40;;;;;;5042793;28;20033;-60
2022/03/07 09:32:11;;;;;;;4.22;2.40;;;5.30;87.60;;;;;;5037145;28;20052;-60
2022/03/07 09:34:37;;;;;;;4.65;2.30;;;5.60;85.50;;;;;;5028609;28;20044;-60
2022/03/07 09:37:04;;;;;;;2.60;1.92;;;5.80;85.00;;;;;;5046003;28;20037;-61
2022/03/07 09:39:31;;;;;;;4.55;2.38;;;6.00;86.40;;;;;;5054825;28;20016;-61
2022/03/07 09:41:58;;;;;;;4.13;2.15;;;6.40;84.70;;;;;;5049698;28;20079;-60
2022/03/07 09:44:23;;;;;;;4.25;1.85;;;6.70;83.90;;;;;;5054265;28;20025;-60
2022/03/07 09:46:50;;;;;;;3.95;2.03;;;7.10;82.40;;;;;;5044958;28;20021;-61
2022/03/07 09:49:18;;;;;;;6.45;2.55;;;7.20;81.70;;;;;;5055852;28;20032;-61
2022/03/07 09:51:44;;;;;;;5.85;2.35;;;7.30;81.20;;;;;;5055127;28;20028;-60
2022/03/07 09:54:09;;;;;;;2.53;1.80;;;7.10;79.60;;;;;;5054190;28;20033;-61
2022/03/07 09:56:35;;;;;;;4.82;2.30;;;7.30;80.40;;;;;;5053338;28;20028;-61
2022/03/07 09:59:00;;;;;;;7.03;1.80;;;7.40;79.60;;;;;;5043948;28;20025;-61
2022/03/07 10:01:26;;;;;;;2.42;2.03;;;7.60;78.60;;;;;;5049456;28;20025;-61
2022/03/07 10:04:04;;;;;;;3.58;2.13;;;7.80;77.30;;;;;;5046775;28;20142;-60
2022/03/07 10:06:31;;;;;;;3.78;2.05;;;7.60;76.80;;;;;;5040928;28;20033;-60
2022/03/07 10:08:59;;;;;;;3.13;2.42;;;7.60;78.70;;;;;;5051520;28;20123;-60
2022/03/07 10:11:25;;;;;;;2.63;1.95;;;7.70;78.30;;;;;;5049251;28;20636;-61
2022/03/07 10:13:52;;;;;;;3.03;2.67;;;7.80;76.00;;;;;;5043646;28;20025;-60
2022/03/07 10:16:20;;;;;;;3.08;2.10;;;7.50;75.20;;;;;;5044770;28;20402;-60
2022/03/07 10:18:51;;;;;;;3.30;1.77;;;7.60;75.90;;;;;;5049001;28;20044;-61
2022/03/07 10:21:27;;;;;;;4.38;2.28;;;7.50;75.80;;;;;;5043279;28;20021;-60
2022/03/07 10:23:55;;;;;;;3.13;2.05;;;6.80;77.50;;;;;;5046073;28;20478;-60
2022/03/07 10:26:21;;;;;;;3.38;1.92;;;6.70;79.70;;;;;;5049385;28;20020;-60
2022/03/07 10:28:58;;;;;;;2.95;2.15;;;6.60;78.50;;;;;;5048953;28;20035;-60
2022/03/07 10:31:24;;;;;;;5.22;2.33;;;6.50;79.40;;;;;;5045024;28;20538;-60
2022/03/07 10:34:19;;;;;;;4.55;1.92;;;6.20;79.90;;;;;;5035015;23;20149;-56
2022/03/07 10:36:46;;;;;;;3.53;2.13;;;6.20;80.50;;;;;;5029171;28;20036;-59
2022/03/07 10:39:20;;;;;;;3.03;2.00;;;6.20;80.60;;;;;;5049887;28;20032;-61
2022/03/07 10:41:46;;;;;;;4.15;2.50;;;6.00;80.00;;;;;;5049521;28;20065;-60
2022/03/07 10:44:25;;;;;;;3.75;2.05;;;5.80;81.00;;;;;;5054514;28;20504;-59
2022/03/07 10:46:51;;;;;;;3.35;2.20;;;5.90;80.30;;;;;;5041613;28;20029;-59
2022/03/07 10:49:17;;;;;;;6.93;2.67;;;5.90;81.90;;;;;;5033489;28;20513;-59
2022/03/07 10:51:53;;;;;;;3.30;2.17;;;6.00;81.40;;;;;;5031458;28;20037;-59
2022/03/07 10:54:20;;;;;;;4.95;2.20;;;5.90;80.80;;;;;;5034370;28;20017;-60
2022/03/07 10:56:54;;;;;;;5.50;2.50;;;5.70;81.00;;;;;;5027750;28;20503;-59
2022/03/07 10:59:31;;;;;;;3.92;2.15;;;5.70;80.90;;;;;;5014301;28;20121;-58
2022/03/07 11:02:01;;;;;;;5.85;3.97;;;5.70;80.80;;;;;;5026786;28;20037;-56
2022/03/07 11:04:27;;;;;;;4.82;2.00;;;5.60;80.70;;;;;;5020739;28;20077;-58
2022/03/07 11:06:53;;;;;;;4.10;2.20;;;5.70;81.80;;;;;;5018974;28;20053;-56
2022/03/07 11:09:19;;;;;;;3.45;2.15;;;5.80;81.80;;;;;;5019710;28;20186;-60
2022/03/07 11:11:45;;;;;;;5.93;2.55;;;5.90;81.20;;;;;;5024858;28;20037;-59
2022/03/07 11:14:12;;;;;;;3.78;2.20;;;5.80;80.80;;;;;;5027988;28;20087;-59
2022/03/07 11:16:38;;;;;;;3.67;2.20;;;6.00;82.90;;;;;;5027364;28;20128;-59
2022/03/07 11:19:06;;;;;;;4.28;2.38;;;6.10;82.30;;;;;;5024304;28;20521;-59
2022/03/07 11:21:35;;;;;;;4.80;2.38;;;6.10;80.20;;;;;;5018007;28;20033;-58
2022/03/07 11:24:00;;;;;;;5.40;2.38;;;6.20;81.60;;;;;;5017880;28;20017;-57
2022/03/07 11:26:26;;;;;;;2.63;2.03;;;6.00;80.80;;;;;;5029936;28;20021;-58
2022/03/07 11:28:52;;;;;;;2.95;1.92;;;5.90;82.00;;;;;;5024315;28;20025;-58
2022/03/07 11:31:34;;;;;;;4.53;2.20;;;6.00;82.00;;;;;;5024691;28;20064;-59
2022/03/07 11:34:07;;;;;;;3.72;1.85;;;5.90;80.30;;;;;;5020781;28;20405;-59
2022/03/07 11:36:35;;;;;;;3.83;2.17;;;5.90;80.60;;;;;;5020354;28;20036;-59
2022/03/07 11:39:02;;;;;;;4.82;2.08;;;5.80;80.50;;;;;;5020656;28;20029;-58
2022/03/07 11:41:30;;;;;;;4.90;2.30;;;5.70;81.10;;;;;;5042682;28;20033;-55
2022/03/07 11:44:00;;;;;;;6.32;2.28;;;5.70;81.80;;;;;;5028504;28;20111;-61
2022/03/07 11:46:34;;;;;;;3.05;2.20;;;5.90;82.70;;;;;;5029173;28;20034;-61
2022/03/07 11:49:02;;;;;;;3.55;2.03;;;6.00;82.50;;;;;;5026868;28;20030;-59
2022/03/07 11:51:30;;;;;;;7.35;3.53;;;6.10;82.60;;;;;;5022188;28;20610;-57
2022/03/07 11:53:58;;;;;;;4.72;2.10;;;6.10;82.20;;;;;;5018821;28;20582;-61
2022/03/07 11:56:35;;;;;;;3.97;2.55;;;6.20;82.50;;;;;;5029976;28;20507;-59
2022/03/07 11:59:08;;;;;;;4.47;1.85;;;6.30;82.40;;;;;;5019890;28;20068;-57
2022/03/07 12:01:34;;;;;;;5.07;2.45;;;6.30;80.00;;;;;;5029875;28;20046;-58
2022/03/07 12:04:14;;;;;;;3.00;1.73;;;6.30;81.20;;;;;;5021867;28;20026;-59
2022/03/07 12:06:46;;;;;;;2.90;2.05;;;6.20;80.10;;;;;;5015664;28;20060;-57
2022/03/07 12:09:40;;;;;;;6.10;2.47;;;6.20;79.30;;;;;;5019348;28;21382;-59
2022/03/07 12:12:09;;;;;;;3.85;1.90;;;6.20;81.40;;;;;;5027408;28;20025;-60
2022/03/07 12:14:40;;;;;;;3.80;1.77;;;6.20;79.30;;;;;;5025806;28;20056;-57
2022/03/07 12:17:19;;;;;;;3.70;2.35;;;6.10;80.00;;;;;;5022455;28;20029;-59
2022/03/07 12:19:56;;;;;;;4.28;2.22;;;6.10;81.10;;;;;;5016056;28;20030;-58
2022/03/07 12:22:27;;;;;;;3.30;1.88;;;6.20;81.30;;;;;;5018565;28;20034;-59
2022/03/07 12:25:00;;;;;;;4.53;2.05;;;6.30;81.70;;;;;;5024262;28;20061;-60
2022/03/07 12:27:26;;;;;;;3.70;2.00;;;6.30;79.70;;;;;;5024410;28;20068;-59
2022/03/07 12:29:52;;;;;;;3.75;2.13;;;6.10;78.00;;;;;;5030002;28;20033;-56
2022/03/07 12:32:18;;;;;;;3.65;2.03;;;6.20;79.50;;;;;;5028121;28;20083;-56
2022/03/07 12:34:45;;;;;;;3.03;2.03;;;6.20;79.40;;;;;;5019782;28;20034;-58
2022/03/07 12:37:18;;;;;;;3.70;2.10;;;6.30;79.90;;;;;;5013356;28;20052;-59
2022/03/07 12:39:52;;;;;;;4.88;2.03;;;6.40;79.40;;;;;;5024255;28;20033;-58
2022/03/07 12:42:23;;;;;;;6.93;2.20;;;6.40;77.80;;;;;;5029433;28;20040;-58
2022/03/07 12:44:51;;;;;;;5.30;1.98;;;6.40;75.40;;;;;;5016412;28;20037;-58
2022/03/07 12:47:20;;;;;;;4.13;1.70;;;6.40;75.40;;;;;;5029133;28;20037;-58